sensor_id;sensor_type;location;lat;lon;timestamp;P1;durP1;ratioP1;P2;durP2;ratioP2
59766;SDS011;46248;58.364;25.582;2022-08-03T00:01:03;6.35;;;3.70;;
59766;SDS011;46248;58.364;25.582;2022-08-03T00:04:25;4.25;;;3.42;;
59766;SDS011;46248;58.364;25.582;2022-08-03T00:07:54;3.72;;;3.38;;
59766;SDS011;46248;58.364;25.582;2022-08-03T00:11:17;4.65;;;3.25;;
59766;SDS011;46248;58.364;25.582;2022-08-03T00:14:39;5.03;;;3.75;;
59766;SDS011;46248;58.364;25.582;2022-08-03T00:18:01;4.30;;;3.58;;
59766;SDS011;46248;58.364;25.582;2022-08-03T00:21:23;5.88;;;4.45;;
59766;SDS011;46248;58.364;25.582;2022-08-03T00:24:46;4.47;;;3.33;;
59766;SDS011;46248;58.364;25.582;2022-08-03T00:28:08;5.43;;;4.20;;
59766;SDS011;46248;58.364;25.582;2022-08-03T00:31:30;6.40;;;5.80;;
59766;SDS011;46248;58.364;25.582;2022-08-03T00:35:12;5.13;;;4.68;;
59766;SDS011;46248;58.364;25.582;2022-08-03T00:38:54;4.93;;;4.43;;
59766;SDS011;46248;58.364;25.582;2022-08-03T00:42:18;4.55;;;4.07;;
59766;SDS011;46248;58.364;25.582;2022-08-03T00:45:42;5.05;;;3.67;;
59766;SDS011;46248;58.364;25.582;2022-08-03T00:49:04;5.25;;;3.50;;
59766;SDS011;46248;58.364;25.582;2022-08-03T00:52:26;3.88;;;3.35;;
59766;SDS011;46248;58.364;25.582;2022-08-03T00:55:48;4.20;;;3.80;;
59766;SDS011;46248;58.364;25.582;2022-08-03T00:59:12;4.63;;;3.90;;
59766;SDS011;46248;58.364;25.582;2022-08-03T01:02:35;3.55;;;2.92;;
59766;SDS011;46248;58.364;25.582;2022-08-03T01:05:59;3.05;;;2.75;;
59766;SDS011;46248;58.364;25.582;2022-08-03T01:09:36;4.88;;;2.72;;
59766;SDS011;46248;58.364;25.582;2022-08-03T01:13:06;3.08;;;2.78;;
59766;SDS011;46248;58.364;25.582;2022-08-03T01:17:04;4.28;;;2.63;;
59766;SDS011;46248;58.364;25.582;2022-08-03T01:20:34;3.70;;;2.85;;
59766;SDS011;46248;58.364;25.582;2022-08-03T01:24:02;5.25;;;3.50;;
59766;SDS011;46248;58.364;25.582;2022-08-03T01:27:36;5.25;;;3.53;;
59766;SDS011;46248;58.364;25.582;2022-08-03T01:34:50;4.72;;;2.65;;
59766;SDS011;46248;58.364;25.582;2022-08-03T01:38:17;3.70;;;2.85;;
59766;SDS011;46248;58.364;25.582;2022-08-03T01:41:46;5.32;;;3.13;;
59766;SDS011;46248;58.364;25.582;2022-08-03T01:45:10;3.63;;;2.90;;
59766;SDS011;46248;58.364;25.582;2022-08-03T01:48:35;4.50;;;3.28;;
59766;SDS011;46248;58.364;25.582;2022-08-03T01:52:00;4.20;;;2.47;;
59766;SDS011;46248;58.364;25.582;2022-08-03T01:55:24;2.80;;;2.40;;
59766;SDS011;46248;58.364;25.582;2022-08-03T01:58:47;3.50;;;2.42;;
59766;SDS011;46248;58.364;25.582;2022-08-03T02:02:15;3.03;;;2.72;;
59766;SDS011;46248;58.364;25.582;2022-08-03T02:09:38;4.22;;;3.10;;
59766;SDS011;46248;58.364;25.582;2022-08-03T02:13:02;8.05;;;3.28;;
59766;SDS011;46248;58.364;25.582;2022-08-03T02:16:27;3.08;;;2.67;;
59766;SDS011;46248;58.364;25.582;2022-08-03T02:19:51;5.07;;;2.78;;
59766;SDS011;46248;58.364;25.582;2022-08-03T02:23:16;4.80;;;3.13;;
59766;SDS011;46248;58.364;25.582;2022-08-03T02:26:38;4.60;;;3.55;;
59766;SDS011;46248;58.364;25.582;2022-08-03T02:30:02;6.15;;;4.13;;
59766;SDS011;46248;58.364;25.582;2022-08-03T02:33:29;9.07;;;4.47;;
59766;SDS011;46248;58.364;25.582;2022-08-03T02:36:54;5.60;;;3.53;;
59766;SDS011;46248;58.364;25.582;2022-08-03T02:40:22;5.18;;;3.30;;
59766;SDS011;46248;58.364;25.582;2022-08-03T02:43:47;6.30;;;3.53;;
59766;SDS011;46248;58.364;25.582;2022-08-03T02:47:26;5.28;;;3.35;;
59766;SDS011;46248;58.364;25.582;2022-08-03T02:51:10;5.18;;;3.05;;
59766;SDS011;46248;58.364;25.582;2022-08-03T02:54:32;6.47;;;3.13;;
59766;SDS011;46248;58.364;25.582;2022-08-03T02:57:58;12.13;;;3.50;;
59766;SDS011;46248;58.364;25.582;2022-08-03T03:01:21;7.32;;;2.90;;
59766;SDS011;46248;58.364;25.582;2022-08-03T03:04:44;5.70;;;2.70;;
59766;SDS011;46248;58.364;25.582;2022-08-03T03:08:27;5.43;;;3.10;;
59766;SDS011;46248;58.364;25.582;2022-08-03T03:11:51;6.75;;;2.80;;
59766;SDS011;46248;58.364;25.582;2022-08-03T03:15:15;5.03;;;3.10;;
59766;SDS011;46248;58.364;25.582;2022-08-03T03:18:38;3.40;;;2.88;;
59766;SDS011;46248;58.364;25.582;2022-08-03T03:22:00;3.63;;;2.92;;
59766;SDS011;46248;58.364;25.582;2022-08-03T03:25:24;5.32;;;3.63;;
59766;SDS011;46248;58.364;25.582;2022-08-03T03:28:46;4.32;;;3.22;;
59766;SDS011;46248;58.364;25.582;2022-08-03T03:32:10;4.63;;;3.95;;
59766;SDS011;46248;58.364;25.582;2022-08-03T03:35:32;4.97;;;3.20;;
59766;SDS011;46248;58.364;25.582;2022-08-03T03:38:58;6.30;;;4.72;;
59766;SDS011;46248;58.364;25.582;2022-08-03T03:42:35;4.68;;;4.03;;
59766;SDS011;46248;58.364;25.582;2022-08-03T03:45:58;4.68;;;4.05;;
59766;SDS011;46248;58.364;25.582;2022-08-03T03:49:22;4.90;;;4.40;;
59766;SDS011;46248;58.364;25.582;2022-08-03T03:52:45;5.95;;;3.83;;
59766;SDS011;46248;58.364;25.582;2022-08-03T03:56:06;7.00;;;4.68;;
59766;SDS011;46248;58.364;25.582;2022-08-03T03:59:28;5.20;;;3.47;;
59766;SDS011;46248;58.364;25.582;2022-08-03T04:02:54;4.22;;;3.53;;
59766;SDS011;46248;58.364;25.582;2022-08-03T04:06:18;3.70;;;3.22;;
59766;SDS011;46248;58.364;25.582;2022-08-03T04:09:58;8.60;;;4.65;;
59766;SDS011;46248;58.364;25.582;2022-08-03T04:13:39;4.93;;;4.05;;
59766;SDS011;46248;58.364;25.582;2022-08-03T04:17:04;5.32;;;4.15;;
59766;SDS011;46248;58.364;25.582;2022-08-03T04:20:29;6.82;;;4.18;;
59766;SDS011;46248;58.364;25.582;2022-08-03T04:23:55;6.82;;;4.30;;
59766;SDS011;46248;58.364;25.582;2022-08-03T04:27:24;7.80;;;6.03;;
59766;SDS011;46248;58.364;25.582;2022-08-03T04:30:49;13.32;;;8.38;;
59766;SDS011;46248;58.364;25.582;2022-08-03T04:34:14;9.73;;;7.78;;
59766;SDS011;46248;58.364;25.582;2022-08-03T04:37:37;10.15;;;9.15;;
59766;SDS011;46248;58.364;25.582;2022-08-03T04:41:04;6.05;;;5.38;;
59766;SDS011;46248;58.364;25.582;2022-08-03T04:44:27;7.93;;;5.53;;
59766;SDS011;46248;58.364;25.582;2022-08-03T04:47:54;4.72;;;4.00;;
59766;SDS011;46248;58.364;25.582;2022-08-03T04:51:17;3.92;;;2.83;;
59766;SDS011;46248;58.364;25.582;2022-08-03T04:54:40;5.20;;;3.13;;
59766;SDS011;46248;58.364;25.582;2022-08-03T04:58:11;3.78;;;2.95;;
59766;SDS011;46248;58.364;25.582;2022-08-03T05:01:33;5.20;;;4.05;;
59766;SDS011;46248;58.364;25.582;2022-08-03T05:04:55;4.40;;;3.03;;
59766;SDS011;46248;58.364;25.582;2022-08-03T05:08:18;3.80;;;3.33;;
59766;SDS011;46248;58.364;25.582;2022-08-03T05:11:47;4.40;;;4.00;;
59766;SDS011;46248;58.364;25.582;2022-08-03T05:15:11;3.65;;;3.20;;
59766;SDS011;46248;58.364;25.582;2022-08-03T05:18:33;4.82;;;3.25;;
59766;SDS011;46248;58.364;25.582;2022-08-03T05:21:56;3.17;;;2.50;;
59766;SDS011;46248;58.364;25.582;2022-08-03T05:25:18;3.72;;;3.42;;
59766;SDS011;46248;58.364;25.582;2022-08-03T05:28:46;4.72;;;2.80;;
59766;SDS011;46248;58.364;25.582;2022-08-03T05:32:12;3.42;;;3.10;;
59766;SDS011;46248;58.364;25.582;2022-08-03T05:35:34;5.07;;;3.28;;
59766;SDS011;46248;58.364;25.582;2022-08-03T05:39:18;6.88;;;3.30;;
59766;SDS011;46248;58.364;25.582;2022-08-03T05:42:40;3.85;;;2.83;;
59766;SDS011;46248;58.364;25.582;2022-08-03T05:46:02;3.15;;;2.95;;
59766;SDS011;46248;58.364;25.582;2022-08-03T05:49:34;3.63;;;2.83;;
59766;SDS011;46248;58.364;25.582;2022-08-03T05:52:56;9.90;;;3.22;;
59766;SDS011;46248;58.364;25.582;2022-08-03T05:56:20;8.32;;;2.95;;
59766;SDS011;46248;58.364;25.582;2022-08-03T05:59:44;4.57;;;2.45;;
59766;SDS011;46248;58.364;25.582;2022-08-03T06:03:17;3.25;;;2.30;;
59766;SDS011;46248;58.364;25.582;2022-08-03T06:06:42;4.22;;;2.90;;
59766;SDS011;46248;58.364;25.582;2022-08-03T06:10:05;2.60;;;2.40;;
59766;SDS011;46248;58.364;25.582;2022-08-03T06:13:48;2.92;;;2.35;;
59766;SDS011;46248;58.364;25.582;2022-08-03T06:17:10;3.33;;;2.20;;
59766;SDS011;46248;58.364;25.582;2022-08-03T06:20:34;5.65;;;2.70;;
59766;SDS011;46248;58.364;25.582;2022-08-03T06:23:58;4.90;;;2.42;;
59766;SDS011;46248;58.364;25.582;2022-08-03T06:27:21;4.13;;;2.08;;
59766;SDS011;46248;58.364;25.582;2022-08-03T06:30:56;3.70;;;2.20;;
59766;SDS011;46248;58.364;25.582;2022-08-03T06:34:21;3.15;;;1.90;;
59766;SDS011;46248;58.364;25.582;2022-08-03T06:37:54;2.38;;;1.90;;
59766;SDS011;46248;58.364;25.582;2022-08-03T06:41:17;5.47;;;2.45;;
59766;SDS011;46248;58.364;25.582;2022-08-03T06:44:39;3.30;;;2.08;;
59766;SDS011;46248;58.364;25.582;2022-08-03T06:48:03;2.65;;;1.90;;
59766;SDS011;46248;58.364;25.582;2022-08-03T06:51:27;5.20;;;2.00;;
59766;SDS011;46248;58.364;25.582;2022-08-03T06:55:08;3.13;;;2.17;;
59766;SDS011;46248;58.364;25.582;2022-08-03T06:58:32;3.95;;;2.30;;
59766;SDS011;46248;58.364;25.582;2022-08-03T07:01:55;3.63;;;2.63;;
59766;SDS011;46248;58.364;25.582;2022-08-03T07:05:17;3.25;;;2.60;;
59766;SDS011;46248;58.364;25.582;2022-08-03T07:08:39;2.72;;;2.53;;
59766;SDS011;46248;58.364;25.582;2022-08-03T07:12:02;2.58;;;2.35;;
59766;SDS011;46248;58.364;25.582;2022-08-03T07:15:27;5.68;;;2.70;;
59766;SDS011;46248;58.364;25.582;2022-08-03T07:19:10;3.88;;;2.63;;
59766;SDS011;46248;58.364;25.582;2022-08-03T07:22:32;5.45;;;2.63;;
59766;SDS011;46248;58.364;25.582;2022-08-03T07:25:54;3.05;;;1.85;;
59766;SDS011;46248;58.364;25.582;2022-08-03T07:29:16;3.85;;;2.33;;
59766;SDS011;46248;58.364;25.582;2022-08-03T07:32:40;3.97;;;2.45;;
59766;SDS011;46248;58.364;25.582;2022-08-03T07:36:10;2.42;;;2.08;;
59766;SDS011;46248;58.364;25.582;2022-08-03T07:39:32;3.13;;;2.17;;
59766;SDS011;46248;58.364;25.582;2022-08-03T07:42:54;6.05;;;3.17;;
59766;SDS011;46248;58.364;25.582;2022-08-03T07:46:17;3.78;;;2.95;;
59766;SDS011;46248;58.364;25.582;2022-08-03T07:49:41;2.95;;;2.13;;
59766;SDS011;46248;58.364;25.582;2022-08-03T07:53:03;4.03;;;2.47;;
59766;SDS011;46248;58.364;25.582;2022-08-03T07:56:25;3.25;;;2.38;;
59766;SDS011;46248;58.364;25.582;2022-08-03T07:59:47;4.18;;;2.30;;
59766;SDS011;46248;58.364;25.582;2022-08-03T08:03:21;2.50;;;2.33;;
59766;SDS011;46248;58.364;25.582;2022-08-03T08:06:47;3.75;;;2.08;;
59766;SDS011;46248;58.364;25.582;2022-08-03T08:10:09;3.75;;;2.38;;
59766;SDS011;46248;58.364;25.582;2022-08-03T08:13:32;4.07;;;2.25;;
59766;SDS011;46248;58.364;25.582;2022-08-03T08:16:54;3.33;;;2.75;;
59766;SDS011;46248;58.364;25.582;2022-08-03T08:20:17;2.55;;;1.98;;
59766;SDS011;46248;58.364;25.582;2022-08-03T08:23:51;2.83;;;2.22;;
59766;SDS011;46248;58.364;25.582;2022-08-03T08:27:16;4.55;;;3.03;;
59766;SDS011;46248;58.364;25.582;2022-08-03T08:30:38;4.80;;;2.28;;
59766;SDS011;46248;58.364;25.582;2022-08-03T08:34:01;3.63;;;2.05;;
59766;SDS011;46248;58.364;25.582;2022-08-03T08:37:24;3.83;;;1.85;;
59766;SDS011;46248;58.364;25.582;2022-08-03T08:40:48;3.72;;;2.05;;
59766;SDS011;46248;58.364;25.582;2022-08-03T08:44:10;4.18;;;2.08;;
59766;SDS011;46248;58.364;25.582;2022-08-03T08:47:32;3.25;;;1.80;;
59766;SDS011;46248;58.364;25.582;2022-08-03T08:51:11;3.35;;;1.90;;
59766;SDS011;46248;58.364;25.582;2022-08-03T08:54:34;1.77;;;1.63;;
59766;SDS011;46248;58.364;25.582;2022-08-03T08:58:00;3.17;;;2.00;;
59766;SDS011;46248;58.364;25.582;2022-08-03T09:01:25;3.15;;;2.22;;
59766;SDS011;46248;58.364;25.582;2022-08-03T09:04:48;4.05;;;1.80;;
59766;SDS011;46248;58.364;25.582;2022-08-03T09:08:11;4.07;;;2.17;;
59766;SDS011;46248;58.364;25.582;2022-08-03T09:11:32;2.22;;;1.55;;
59766;SDS011;46248;58.364;25.582;2022-08-03T09:15:17;3.42;;;1.73;;
59766;SDS011;46248;58.364;25.582;2022-08-03T09:18:41;2.78;;;1.50;;
59766;SDS011;46248;58.364;25.582;2022-08-03T09:22:08;3.47;;;2.47;;
59766;SDS011;46248;58.364;25.582;2022-08-03T09:25:32;5.05;;;2.00;;
59766;SDS011;46248;58.364;25.582;2022-08-03T09:28:55;2.10;;;1.65;;
59766;SDS011;46248;58.364;25.582;2022-08-03T09:32:27;4.25;;;1.67;;
59766;SDS011;46248;58.364;25.582;2022-08-03T09:35:51;3.60;;;1.48;;
59766;SDS011;46248;58.364;25.582;2022-08-03T09:39:17;6.30;;;2.03;;
59766;SDS011;46248;58.364;25.582;2022-08-03T09:42:59;4.63;;;1.95;;
59766;SDS011;46248;58.364;25.582;2022-08-03T09:46:22;2.55;;;1.20;;
59766;SDS011;46248;58.364;25.582;2022-08-03T09:49:55;2.25;;;1.58;;
59766;SDS011;46248;58.364;25.582;2022-08-03T09:53:21;3.17;;;1.73;;
59766;SDS011;46248;58.364;25.582;2022-08-03T09:56:44;6.95;;;1.60;;
59766;SDS011;46248;58.364;25.582;2022-08-03T10:00:08;3.30;;;1.58;;
59766;SDS011;46248;58.364;25.582;2022-08-03T10:03:33;5.32;;;1.70;;
59766;SDS011;46248;58.364;25.582;2022-08-03T10:07:17;2.88;;;1.48;;
59766;SDS011;46248;58.364;25.582;2022-08-03T10:10:41;2.72;;;1.42;;
59766;SDS011;46248;58.364;25.582;2022-08-03T10:14:05;3.50;;;1.67;;
59766;SDS011;46248;58.364;25.582;2022-08-03T10:17:29;4.07;;;1.52;;
59766;SDS011;46248;58.364;25.582;2022-08-03T10:20:58;3.33;;;1.67;;
59766;SDS011;46248;58.364;25.582;2022-08-03T10:24:25;3.70;;;2.10;;
59766;SDS011;46248;58.364;25.582;2022-08-03T10:27:49;9.77;;;2.92;;
59766;SDS011;46248;58.364;25.582;2022-08-03T10:31:13;8.82;;;2.78;;
59766;SDS011;46248;58.364;25.582;2022-08-03T10:34:39;5.43;;;1.60;;
59766;SDS011;46248;58.364;25.582;2022-08-03T10:38:05;5.57;;;1.85;;
59766;SDS011;46248;58.364;25.582;2022-08-03T10:41:33;4.25;;;1.50;;
59766;SDS011;46248;58.364;25.582;2022-08-03T10:45:03;2.70;;;1.45;;
59766;SDS011;46248;58.364;25.582;2022-08-03T10:48:28;2.28;;;1.50;;
59766;SDS011;46248;58.364;25.582;2022-08-03T10:51:51;2.35;;;1.38;;
59766;SDS011;46248;58.364;25.582;2022-08-03T10:55:31;5.00;;;1.55;;
59766;SDS011;46248;58.364;25.582;2022-08-03T10:59:13;1.90;;;1.20;;
59766;SDS011;46248;58.364;25.582;2022-08-03T11:06:37;2.05;;;1.10;;
59766;SDS011;46248;58.364;25.582;2022-08-03T11:09:59;2.45;;;0.98;;
59766;SDS011;46248;58.364;25.582;2022-08-03T11:13:28;2.72;;;1.20;;
59766;SDS011;46248;58.364;25.582;2022-08-03T11:17:06;2.35;;;1.70;;
59766;SDS011;46248;58.364;25.582;2022-08-03T11:20:44;5.13;;;1.50;;
59766;SDS011;46248;58.364;25.582;2022-08-03T11:24:07;1.25;;;0.98;;
59766;SDS011;46248;58.364;25.582;2022-08-03T11:27:30;5.72;;;2.15;;
59766;SDS011;46248;58.364;25.582;2022-08-03T11:30:53;1.40;;;1.00;;
59766;SDS011;46248;58.364;25.582;2022-08-03T11:34:16;2.15;;;1.30;;
59766;SDS011;46248;58.364;25.582;2022-08-03T11:38:00;3.42;;;1.65;;
59766;SDS011;46248;58.364;25.582;2022-08-03T11:41:31;8.70;;;3.47;;
59766;SDS011;46248;58.364;25.582;2022-08-03T11:45:05;9.18;;;4.03;;
59766;SDS011;46248;58.364;25.582;2022-08-03T11:48:33;8.27;;;3.95;;
59766;SDS011;46248;58.364;25.582;2022-08-03T11:51:57;8.05;;;3.35;;
59766;SDS011;46248;58.364;25.582;2022-08-03T11:55:19;4.82;;;1.63;;
59766;SDS011;46248;58.364;25.582;2022-08-03T11:58:45;2.35;;;1.00;;
59766;SDS011;46248;58.364;25.582;2022-08-03T12:02:28;1.77;;;1.20;;
59766;SDS011;46248;58.364;25.582;2022-08-03T12:05:51;1.60;;;1.30;;
59766;SDS011;46248;58.364;25.582;2022-08-03T12:09:15;1.30;;;1.20;;
59766;SDS011;46248;58.364;25.582;2022-08-03T12:12:40;3.38;;;1.20;;
59766;SDS011;46248;58.364;25.582;2022-08-03T12:16:05;2.10;;;1.23;;
59766;SDS011;46248;58.364;25.582;2022-08-03T12:19:37;1.42;;;1.10;;
59766;SDS011;46248;58.364;25.582;2022-08-03T12:23:03;2.33;;;1.73;;
59766;SDS011;46248;58.364;25.582;2022-08-03T12:26:27;2.28;;;1.13;;
59766;SDS011;46248;58.364;25.582;2022-08-03T12:29:50;1.40;;;1.13;;
59766;SDS011;46248;58.364;25.582;2022-08-03T12:33:21;1.98;;;1.02;;
59766;SDS011;46248;58.364;25.582;2022-08-03T12:36:49;4.43;;;1.17;;
59766;SDS011;46248;58.364;25.582;2022-08-03T12:40:12;2.22;;;1.40;;
59766;SDS011;46248;58.364;25.582;2022-08-03T12:43:47;1.50;;;0.90;;
59766;SDS011;46248;58.364;25.582;2022-08-03T12:47:10;2.38;;;1.23;;
59766;SDS011;46248;58.364;25.582;2022-08-03T12:50:33;2.97;;;1.38;;
59766;SDS011;46248;58.364;25.582;2022-08-03T12:53:57;3.05;;;2.00;;
59766;SDS011;46248;58.364;25.582;2022-08-03T12:57:19;4.05;;;1.98;;
59766;SDS011;46248;58.364;25.582;2022-08-03T13:00:50;2.92;;;1.42;;
59766;SDS011;46248;58.364;25.582;2022-08-03T13:04:24;2.10;;;1.10;;
59766;SDS011;46248;58.364;25.582;2022-08-03T13:07:48;1.65;;;1.10;;
59766;SDS011;46248;58.364;25.582;2022-08-03T13:11:17;2.58;;;1.00;;
59766;SDS011;46248;58.364;25.582;2022-08-03T13:15:03;4.20;;;1.58;;
59766;SDS011;46248;58.364;25.582;2022-08-03T13:18:29;3.85;;;1.90;;
59766;SDS011;46248;58.364;25.582;2022-08-03T13:21:53;2.78;;;1.50;;
59766;SDS011;46248;58.364;25.582;2022-08-03T13:25:23;2.67;;;1.40;;
59766;SDS011;46248;58.364;25.582;2022-08-03T13:28:46;2.72;;;1.35;;
59766;SDS011;46248;58.364;25.582;2022-08-03T13:32:08;3.60;;;1.38;;
59766;SDS011;46248;58.364;25.582;2022-08-03T13:35:32;3.55;;;1.00;;
59766;SDS011;46248;58.364;25.582;2022-08-03T13:38:54;3.55;;;1.58;;
59766;SDS011;46248;58.364;25.582;2022-08-03T13:42:16;1.67;;;1.17;;
59766;SDS011;46248;58.364;25.582;2022-08-03T13:45:38;4.20;;;1.25;;
59766;SDS011;46248;58.364;25.582;2022-08-03T13:49:06;1.30;;;0.85;;
59766;SDS011;46248;58.364;25.582;2022-08-03T13:52:31;1.17;;;0.90;;
59766;SDS011;46248;58.364;25.582;2022-08-03T13:55:54;4.22;;;1.17;;
59766;SDS011;46248;58.364;25.582;2022-08-03T13:59:16;3.90;;;1.15;;
59766;SDS011;46248;58.364;25.582;2022-08-03T14:02:37;2.90;;;1.10;;
59766;SDS011;46248;58.364;25.582;2022-08-03T14:05:59;4.25;;;1.90;;
59766;SDS011;46248;58.364;25.582;2022-08-03T14:09:23;3.22;;;1.13;;
59766;SDS011;46248;58.364;25.582;2022-08-03T14:12:45;2.47;;;1.15;;
59766;SDS011;46248;58.364;25.582;2022-08-03T14:16:07;4.70;;;1.60;;
59766;SDS011;46248;58.364;25.582;2022-08-03T14:19:29;2.00;;;1.10;;
59766;SDS011;46248;58.364;25.582;2022-08-03T14:23:11;10.52;;;4.53;;
59766;SDS011;46248;58.364;25.582;2022-08-03T14:26:35;7.68;;;3.97;;
59766;SDS011;46248;58.364;25.582;2022-08-03T14:29:57;2.47;;;1.10;;
59766;SDS011;46248;58.364;25.582;2022-08-03T14:33:20;5.60;;;3.90;;
59766;SDS011;46248;58.364;25.582;2022-08-03T14:36:42;3.08;;;1.63;;
59766;SDS011;46248;58.364;25.582;2022-08-03T14:40:06;3.20;;;2.22;;
59766;SDS011;46248;58.364;25.582;2022-08-03T14:43:30;1.48;;;0.90;;
59766;SDS011;46248;58.364;25.582;2022-08-03T14:46:53;7.68;;;5.15;;
59766;SDS011;46248;58.364;25.582;2022-08-03T14:50:15;3.90;;;2.05;;
59766;SDS011;46248;58.364;25.582;2022-08-03T14:53:57;5.18;;;3.05;;
59766;SDS011;46248;58.364;25.582;2022-08-03T14:57:19;2.08;;;0.88;;
59766;SDS011;46248;58.364;25.582;2022-08-03T15:00:43;2.55;;;1.05;;
59766;SDS011;46248;58.364;25.582;2022-08-03T15:04:05;0.57;;;0.55;;
59766;SDS011;46248;58.364;25.582;2022-08-03T15:07:27;1.95;;;1.20;;
59766;SDS011;46248;58.364;25.582;2022-08-03T15:10:52;4.43;;;3.00;;
59766;SDS011;46248;58.364;25.582;2022-08-03T15:14:15;4.35;;;2.75;;
59766;SDS011;46248;58.364;25.582;2022-08-03T15:17:43;1.40;;;0.90;;
59766;SDS011;46248;58.364;25.582;2022-08-03T15:25:02;2.75;;;0.60;;
59766;SDS011;46248;58.364;25.582;2022-08-03T15:28:44;2.78;;;1.00;;
59766;SDS011;46248;58.364;25.582;2022-08-03T15:32:06;2.22;;;0.63;;
59766;SDS011;46248;58.364;25.582;2022-08-03T15:35:30;1.73;;;0.93;;
59766;SDS011;46248;58.364;25.582;2022-08-03T15:38:52;1.35;;;0.85;;
59766;SDS011;46248;58.364;25.582;2022-08-03T15:42:15;0.70;;;0.65;;
59766;SDS011;46248;58.364;25.582;2022-08-03T15:45:37;2.10;;;0.93;;
59766;SDS011;46248;58.364;25.582;2022-08-03T15:49:01;1.35;;;0.60;;
59766;SDS011;46248;58.364;25.582;2022-08-03T15:52:24;1.77;;;0.90;;
59766;SDS011;46248;58.364;25.582;2022-08-03T15:55:47;1.95;;;0.68;;
59766;SDS011;46248;58.364;25.582;2022-08-03T15:59:09;1.00;;;0.90;;
59766;SDS011;46248;58.364;25.582;2022-08-03T16:02:33;6.60;;;1.08;;
59766;SDS011;46248;58.364;25.582;2022-08-03T16:05:55;1.08;;;0.77;;
59766;SDS011;46248;58.364;25.582;2022-08-03T16:09:18;0.70;;;0.70;;
59766;SDS011;46248;58.364;25.582;2022-08-03T16:12:42;3.80;;;0.82;;
59766;SDS011;46248;58.364;25.582;2022-08-03T16:16:04;3.28;;;0.80;;
59766;SDS011;46248;58.364;25.582;2022-08-03T16:19:26;0.65;;;0.63;;
59766;SDS011;46248;58.364;25.582;2022-08-03T16:22:48;1.13;;;0.43;;
59766;SDS011;46248;58.364;25.582;2022-08-03T16:26:12;1.25;;;0.60;;
59766;SDS011;46248;58.364;25.582;2022-08-03T16:29:34;4.32;;;0.57;;
59766;SDS011;46248;58.364;25.582;2022-08-03T16:32:56;2.95;;;0.60;;
59766;SDS011;46248;58.364;25.582;2022-08-03T16:36:19;2.38;;;0.50;;
59766;SDS011;46248;58.364;25.582;2022-08-03T16:39:40;2.42;;;1.00;;
59766;SDS011;46248;58.364;25.582;2022-08-03T16:43:10;6.82;;;0.70;;
59766;SDS011;46248;58.364;25.582;2022-08-03T16:46:38;1.75;;;0.70;;
59766;SDS011;46248;58.364;25.582;2022-08-03T16:50:02;2.03;;;0.57;;
59766;SDS011;46248;58.364;25.582;2022-08-03T16:53:34;1.55;;;0.50;;
59766;SDS011;46248;58.364;25.582;2022-08-03T16:57:16;1.95;;;0.60;;
59766;SDS011;46248;58.364;25.582;2022-08-03T17:01:00;0.77;;;0.55;;
59766;SDS011;46248;58.364;25.582;2022-08-03T17:04:41;0.45;;;0.40;;
59766;SDS011;46248;58.364;25.582;2022-08-03T17:08:04;0.43;;;0.43;;
59766;SDS011;46248;58.364;25.582;2022-08-03T17:11:32;1.30;;;0.50;;
59766;SDS011;46248;58.364;25.582;2022-08-03T17:14:55;2.13;;;0.50;;
59766;SDS011;46248;58.364;25.582;2022-08-03T17:18:21;0.55;;;0.45;;
59766;SDS011;46248;58.364;25.582;2022-08-03T17:21:51;1.23;;;0.40;;
59766;SDS011;46248;58.364;25.582;2022-08-03T17:25:23;0.55;;;0.30;;
59766;SDS011;46248;58.364;25.582;2022-08-03T17:29:06;3.90;;;0.98;;
59766;SDS011;46248;58.364;25.582;2022-08-03T17:32:32;1.20;;;0.50;;
59766;SDS011;46248;58.364;25.582;2022-08-03T17:36:03;1.10;;;0.50;;
59766;SDS011;46248;58.364;25.582;2022-08-03T17:39:26;0.80;;;0.40;;
59766;SDS011;46248;58.364;25.582;2022-08-03T17:43:09;1.83;;;0.40;;
59766;SDS011;46248;58.364;25.582;2022-08-03T17:46:54;0.85;;;0.45;;
59766;SDS011;46248;58.364;25.582;2022-08-03T17:50:17;1.55;;;0.57;;
59766;SDS011;46248;58.364;25.582;2022-08-03T17:53:52;1.65;;;0.80;;
59766;SDS011;46248;58.364;25.582;2022-08-03T17:57:24;1.85;;;0.40;;
59766;SDS011;46248;58.364;25.582;2022-08-03T18:01:12;1.00;;;0.60;;
59766;SDS011;46248;58.364;25.582;2022-08-03T18:05:13;3.55;;;1.10;;
59766;SDS011;46248;58.364;25.582;2022-08-03T18:08:42;1.55;;;0.55;;
59766;SDS011;46248;58.364;25.582;2022-08-03T18:15:36;1.95;;;0.95;;
59766;SDS011;46248;58.364;25.582;2022-08-03T18:19:03;2.03;;;1.00;;
59766;SDS011;46248;58.364;25.582;2022-08-03T18:22:32;1.50;;;0.68;;
59766;SDS011;46248;58.364;25.582;2022-08-03T18:25:55;1.73;;;0.68;;
59766;SDS011;46248;58.364;25.582;2022-08-03T18:29:19;2.58;;;0.73;;
59766;SDS011;46248;58.364;25.582;2022-08-03T18:32:43;2.05;;;0.60;;
59766;SDS011;46248;58.364;25.582;2022-08-03T18:36:20;1.53;;;0.70;;
59766;SDS011;46248;58.364;25.582;2022-08-03T18:39:49;2.53;;;0.93;;
59766;SDS011;46248;58.364;25.582;2022-08-03T18:43:12;1.80;;;0.88;;
59766;SDS011;46248;58.364;25.582;2022-08-03T18:46:44;3.78;;;0.77;;
59766;SDS011;46248;58.364;25.582;2022-08-03T18:50:13;2.85;;;1.10;;
59766;SDS011;46248;58.364;25.582;2022-08-03T18:53:40;1.50;;;0.75;;
59766;SDS011;46248;58.364;25.582;2022-08-03T18:57:25;1.77;;;0.80;;
59766;SDS011;46248;58.364;25.582;2022-08-03T19:00:57;4.25;;;1.75;;
59766;SDS011;46248;58.364;25.582;2022-08-03T19:04:49;3.47;;;0.88;;
59766;SDS011;46248;58.364;25.582;2022-08-03T19:08:19;2.22;;;0.90;;
59766;SDS011;46248;58.364;25.582;2022-08-03T19:11:50;2.63;;;0.90;;
59766;SDS011;46248;58.364;25.582;2022-08-03T19:15:34;4.43;;;0.82;;
59766;SDS011;46248;58.364;25.582;2022-08-03T19:19:10;3.85;;;0.80;;
59766;SDS011;46248;58.364;25.582;2022-08-03T19:22:35;2.58;;;0.60;;
59766;SDS011;46248;58.364;25.582;2022-08-03T19:26:05;1.25;;;0.60;;
59766;SDS011;46248;58.364;25.582;2022-08-03T19:29:47;1.25;;;0.80;;
59766;SDS011;46248;58.364;25.582;2022-08-03T19:33:20;3.33;;;0.70;;
59766;SDS011;46248;58.364;25.582;2022-08-03T19:36:49;4.03;;;0.90;;
59766;SDS011;46248;58.364;25.582;2022-08-03T19:40:13;0.88;;;0.50;;
59766;SDS011;46248;58.364;25.582;2022-08-03T19:43:39;2.15;;;0.75;;
59766;SDS011;46248;58.364;25.582;2022-08-03T19:47:13;0.80;;;0.57;;
59766;SDS011;46248;58.364;25.582;2022-08-03T19:50:42;0.68;;;0.60;;
59766;SDS011;46248;58.364;25.582;2022-08-03T19:54:07;1.27;;;0.75;;
59766;SDS011;46248;58.364;25.582;2022-08-03T19:57:36;1.13;;;0.70;;
59766;SDS011;46248;58.364;25.582;2022-08-03T20:01:01;1.40;;;0.90;;
59766;SDS011;46248;58.364;25.582;2022-08-03T20:04:40;1.08;;;0.50;;
59766;SDS011;46248;58.364;25.582;2022-08-03T20:08:05;3.00;;;0.80;;
59766;SDS011;46248;58.364;25.582;2022-08-03T20:11:29;1.85;;;0.70;;
59766;SDS011;46248;58.364;25.582;2022-08-03T20:15:06;2.33;;;0.90;;
59766;SDS011;46248;58.364;25.582;2022-08-03T20:18:29;5.30;;;1.20;;
59766;SDS011;46248;58.364;25.582;2022-08-03T20:21:58;2.63;;;1.20;;
59766;SDS011;46248;58.364;25.582;2022-08-03T20:25:23;4.97;;;0.98;;
59766;SDS011;46248;58.364;25.582;2022-08-03T20:28:59;3.85;;;0.95;;
59766;SDS011;46248;58.364;25.582;2022-08-03T20:32:30;2.65;;;0.77;;
59766;SDS011;46248;58.364;25.582;2022-08-03T20:35:53;2.38;;;0.90;;
59766;SDS011;46248;58.364;25.582;2022-08-03T20:39:16;3.45;;;1.00;;
59766;SDS011;46248;58.364;25.582;2022-08-03T20:42:38;1.67;;;0.80;;
59766;SDS011;46248;58.364;25.582;2022-08-03T20:46:01;1.00;;;0.90;;